Time;durP1;ratioP1;P1;durP2;ratioP2;P2;SDS_P1;SDS_P2;PMS_P1;PMS_P2;Temp;Humidity;BMP_temperature;BMP_pressure;BME280_temperature;BME280_humidity;BME280_pressure;Samples;Min_cycle;Max_cycle;Signal;HPM_P1;HPM_P2
2021/11/27 00:00:23;;;;;;;4.60;2.60;;;;;;;;;;5051771;28;20450;-56
2021/11/27 00:02:49;;;;;;;4.93;1.57;;;;;;;;;;5050227;28;20059;-55
2021/11/27 00:05:15;;;;;;;4.93;2.37;;;;;;;;;;5034181;28;20164;-57
2021/11/27 00:07:41;;;;;;;3.00;2.10;;;;;;;;;;5035803;28;20117;-55
2021/11/27 00:10:09;;;;;;;3.03;2.30;;;;;;;;;;5035504;28;20463;-56
2021/11/27 00:12:35;;;;;;;2.17;1.30;;;;;;;;;;5035754;28;20041;-56
2021/11/27 00:15:01;;;;;;;3.37;2.13;;;;;;;;;;5035708;28;20427;-56
2021/11/27 00:17:27;;;;;;;3.73;2.10;;;;;;;;;;5035732;28;20035;-56
2021/11/27 00:19:53;;;;;;;2.70;1.70;;;;;;;;;;5035546;28;20025;-56
2021/11/27 00:22:19;;;;;;;3.60;2.33;;;;;;;;;;5035930;28;20034;-55
2021/11/27 00:24:45;;;;;;;3.70;1.73;;;;;;;;;;5035483;28;20120;-57
2021/11/27 00:27:11;;;;;;;3.90;2.33;;;;;;;;;;5035583;28;20029;-56
2021/11/27 00:29:37;;;;;;;2.03;1.60;;;;;;;;;;5034707;28;20025;-56
2021/11/27 00:32:03;;;;;;;3.53;2.13;;;;;;;;;;5035746;28;20517;-57
2021/11/27 00:34:29;;;;;;;2.63;1.70;;;;;;;;;;5035392;28;20034;-56
2021/11/27 00:36:55;;;;;;;3.10;1.70;;;;;;;;;;5035307;28;20272;-57
2021/11/27 00:39:22;;;;;;;3.60;2.00;;;;;;;;;;5034717;28;20026;-55
2021/11/27 00:41:49;;;;;;;3.43;2.07;;;;;;;;;;5034970;28;20061;-56
2021/11/27 00:44:15;;;;;;;2.55;1.55;;;;;;;;;;5035413;28;20036;-55
2021/11/27 00:46:41;;;;;;;3.63;2.33;;;;;;;;;;5035352;28;20064;-55
2021/11/27 00:49:07;;;;;;;2.00;1.40;;;;;;;;;;5034641;28;20379;-55
2021/11/27 00:51:33;;;;;;;2.47;1.50;;;;;;;;;;5035287;28;20129;-56
2021/11/27 00:53:59;;;;;;;5.23;1.97;;;;;;;;;;5035057;28;20021;-57
2021/11/27 00:56:26;;;;;;;3.37;1.53;;;;;;;;;;5034753;28;20037;-54
2021/11/27 00:58:52;;;;;;;2.45;1.73;;;;;;;;;;5034510;28;20031;-56
2021/11/27 01:01:20;;;;;;;3.30;2.60;;;;;;;;;;5034828;28;20025;-57
2021/11/27 01:03:46;;;;;;;3.23;2.03;;;;;;;;;;5044926;28;20029;-55
2021/11/27 01:06:13;;;;;;;2.53;1.63;;;;;;;;;;5054775;28;20037;-55
2021/11/27 01:08:40;;;;;;;2.63;1.73;;;;;;;;;;5054132;28;20466;-56
2021/11/27 01:11:29;;;;;;;3.25;2.03;;;;;;;;;;5054340;28;20429;-56
2021/11/27 01:13:56;;;;;;;4.83;1.90;;;;;;;;;;5051611;28;20044;-56
2021/11/27 01:16:24;;;;;;;3.90;2.23;;;;;;;;;;5053908;28;20375;-56
2021/11/27 01:18:50;;;;;;;2.13;1.67;;;;;;;;;;5053958;28;20025;-56
2021/11/27 01:21:18;;;;;;;2.47;1.87;;;;;;;;;;5054816;28;20036;-53
2021/11/27 01:23:46;;;;;;;4.30;1.97;;;;;;;;;;5054292;28;20029;-57
2021/11/27 01:26:12;;;;;;;2.50;1.87;;;;;;;;;;5053143;28;20033;-57
2021/11/27 01:28:39;;;;;;;3.03;2.00;;;;;;;;;;5053715;28;20475;-56
2021/11/27 01:31:05;;;;;;;4.10;2.55;;;;;;;;;;5054775;28;20033;-57
2021/11/27 01:33:31;;;;;;;2.55;1.88;;;;;;;;;;5054294;28;20033;-57
2021/11/27 01:35:57;;;;;;;4.33;1.83;;;;;;;;;;5054125;28;20056;-55
2021/11/27 01:38:23;;;;;;;3.73;2.37;;;;;;;;;;5053417;28;20121;-57
2021/11/27 01:40:50;;;;;;;2.47;1.70;;;;;;;;;;5054323;28;20490;-54
2021/11/27 01:43:16;;;;;;;5.77;2.07;;;;;;;;;;5054207;28;20029;-57
2021/11/27 01:45:42;;;;;;;4.03;2.60;;;;;;;;;;5054124;28;20048;-55
2021/11/27 01:48:09;;;;;;;4.50;3.00;;;;;;;;;;5053436;28;20057;-56
2021/11/27 01:50:37;;;;;;;3.10;2.30;;;;;;;;;;5053928;28;20025;-56
2021/11/27 01:53:04;;;;;;;3.03;2.43;;;;;;;;;;5054186;28;20033;-56
2021/11/27 01:55:30;;;;;;;3.90;2.37;;;;;;;;;;5053978;28;20025;-55
2021/11/27 01:57:58;;;;;;;3.93;2.43;;;;;;;;;;5053024;28;20025;-55
2021/11/27 02:00:26;;;;;;;3.33;2.33;;;;;;;;;;5053951;28;20230;-56
2021/11/27 02:02:53;;;;;;;4.43;2.40;;;;;;;;;;5051412;28;20086;-57
2021/11/27 02:05:19;;;;;;;4.07;3.05;;;;;;;;;;5033529;28;20072;-58
2021/11/27 02:07:46;;;;;;;5.33;3.60;;;;;;;;;;5033712;28;20098;-57
2021/11/27 02:10:13;;;;;;;3.60;2.43;;;;;;;;;;5034121;28;20080;-56
2021/11/27 02:12:39;;;;;;;3.90;2.40;;;;;;;;;;5033510;28;20060;-53
2021/11/27 02:15:06;;;;;;;5.63;3.27;;;;;;;;;;5033620;28;20071;-53
2021/11/27 02:17:31;;;;;;;4.30;2.87;;;;;;;;;;5033446;28;20471;-52
2021/11/27 02:19:57;;;;;;;4.30;2.60;;;;;;;;;;5032750;28;20037;-53
2021/11/27 02:22:24;;;;;;;5.20;2.70;;;;;;;;;;5033619;28;20026;-53
2021/11/27 02:24:50;;;;;;;4.67;3.47;;;;;;;;;;5033513;28;20034;-53
2021/11/27 02:27:16;;;;;;;2.57;2.00;;;;;;;;;;5033208;28;20337;-53
2021/11/27 02:29:44;;;;;;;5.50;4.13;;;;;;;;;;5031848;28;20027;-56
2021/11/27 02:32:10;;;;;;;4.97;3.37;;;;;;;;;;5034060;28;20037;-57
2021/11/27 02:34:36;;;;;;;3.83;2.63;;;;;;;;;;5033285;28;20124;-54
2021/11/27 02:37:03;;;;;;;5.50;2.97;;;;;;;;;;5033328;28;20530;-56
2021/11/27 02:39:30;;;;;;;3.43;2.43;;;;;;;;;;5032509;28;20029;-55
2021/11/27 02:41:56;;;;;;;4.93;3.00;;;;;;;;;;5033190;28;20037;-57
2021/11/27 02:44:27;;;;;;;3.97;2.63;;;;;;;;;;5033328;28;20385;-52
2021/11/27 02:46:53;;;;;;;3.75;2.75;;;;;;;;;;5031212;28;20073;-55
2021/11/27 02:49:19;;;;;;;3.50;2.23;;;;;;;;;;5032479;28;20039;-54
2021/11/27 02:51:45;;;;;;;3.70;2.47;;;;;;;;;;5033163;28;20048;-56
2021/11/27 02:54:12;;;;;;;4.33;2.57;;;;;;;;;;5032879;28;20035;-57
2021/11/27 02:56:38;;;;;;;3.70;2.40;;;;;;;;;;5032854;28;20017;-54
2021/11/27 02:59:15;;;;;;;3.13;2.47;;;;;;;;;;5032132;28;20026;-56
2021/11/27 03:01:42;;;;;;;7.00;2.37;;;;;;;;;;5032812;28;20438;-58
2021/11/27 03:04:08;;;;;;;3.90;2.07;;;;;;;;;;5045249;28;20071;-56
2021/11/27 03:06:34;;;;;;;4.43;2.53;;;;;;;;;;5052382;28;20017;-55
2021/11/27 03:09:01;;;;;;;4.17;2.50;;;;;;;;;;5051895;28;20021;-54
2021/11/27 03:11:27;;;;;;;4.80;2.83;;;;;;;;;;5052397;28;20021;-57
2021/11/27 03:13:53;;;;;;;2.70;2.10;;;;;;;;;;5052765;28;20028;-56
2021/11/27 03:16:19;;;;;;;4.67;3.10;;;;;;;;;;5052489;28;20097;-57
2021/11/27 03:18:45;;;;;;;3.73;2.50;;;;;;;;;;5051832;28;20025;-55
2021/11/27 03:21:11;;;;;;;3.37;2.13;;;;;;;;;;5052218;28;20382;-52
2021/11/27 03:23:37;;;;;;;6.50;2.70;;;;;;;;;;5052280;28;20121;-55
2021/11/27 03:26:04;;;;;;;4.47;2.67;;;;;;;;;;5052247;28;20462;-56
2021/11/27 03:28:30;;;;;;;4.68;3.03;;;;;;;;;;5051500;28;20055;-56
2021/11/27 03:30:56;;;;;;;5.23;2.53;;;;;;;;;;5052004;28;20033;-56
2021/11/27 03:33:22;;;;;;;3.93;2.20;;;;;;;;;;5052328;28;20497;-55
2021/11/27 03:35:48;;;;;;;4.20;2.57;;;;;;;;;;5052339;28;20407;-57
2021/11/27 03:38:14;;;;;;;4.10;2.53;;;;;;;;;;5051569;28;20040;-55
2021/11/27 03:40:40;;;;;;;6.40;2.77;;;;;;;;;;5051644;28;20475;-54
2021/11/27 03:43:06;;;;;;;3.28;2.33;;;;;;;;;;5052009;28;20075;-53
2021/11/27 03:45:32;;;;;;;4.80;2.67;;;;;;;;;;5052068;28;20116;-54
2021/11/27 03:47:58;;;;;;;4.17;2.67;;;;;;;;;;5051874;28;20149;-56
2021/11/27 03:50:28;;;;;;;4.00;2.90;;;;;;;;;;5052019;28;20561;-55
2021/11/27 03:52:54;;;;;;;3.10;1.93;;;;;;;;;;5052076;28;20029;-55
2021/11/27 03:55:20;;;;;;;3.80;2.03;;;;;;;;;;5051997;28;20438;-57
2021/11/27 03:57:46;;;;;;;4.03;2.37;;;;;;;;;;5051551;28;20032;-57
2021/11/27 04:00:12;;;;;;;5.10;2.17;;;;;;;;;;5051624;28;20025;-57
2021/11/27 04:02:38;;;;;;;3.90;2.50;;;;;;;;;;5051652;28;20116;-56
2021/11/27 04:05:04;;;;;;;4.80;2.43;;;;;;;;;;5032051;28;20187;-57
2021/11/27 04:07:30;;;;;;;3.60;2.10;;;;;;;;;;5032076;28;20040;-56
2021/11/27 04:09:56;;;;;;;2.97;1.80;;;;;;;;;;5031466;28;20379;-57
2021/11/27 04:12:22;;;;;;;3.50;2.47;;;;;;;;;;5031729;28;20160;-57
2021/11/27 04:14:48;;;;;;;2.80;1.83;;;;;;;;;;5031800;28;20036;-57
2021/11/27 04:17:14;;;;;;;5.43;2.33;;;;;;;;;;5032101;28;20034;-57
2021/11/27 04:19:40;;;;;;;2.90;1.93;;;;;;;;;;5031268;28;20518;-56
2021/11/27 04:22:06;;;;;;;3.23;1.83;;;;;;;;;;5031763;28;20048;-58
2021/11/27 04:24:32;;;;;;;4.83;1.90;;;;;;;;;;5031750;28;20537;-56
2021/11/27 04:26:57;;;;;;;2.77;1.83;;;;;;;;;;5031535;28;20025;-57
2021/11/27 04:29:23;;;;;;;1.97;1.43;;;;;;;;;;5031640;28;20318;-56
2021/11/27 04:31:49;;;;;;;2.47;1.73;;;;;;;;;;5026435;28;20056;-57
2021/11/27 04:34:15;;;;;;;2.73;1.53;;;;;;;;;;5031890;28;20057;-56
2021/11/27 04:36:41;;;;;;;2.10;1.47;;;;;;;;;;5031453;28;20048;-57
2021/11/27 04:39:07;;;;;;;2.83;1.67;;;;;;;;;;5031199;28;20387;-56
2021/11/27 04:41:33;;;;;;;2.50;1.67;;;;;;;;;;5031339;28;20096;-55
2021/11/27 04:43:59;;;;;;;2.28;1.48;;;;;;;;;;5031990;28;20030;-56
2021/11/27 04:46:25;;;;;;;1.95;1.25;;;;;;;;;;5031430;28;20501;-55
2021/11/27 04:48:51;;;;;;;2.90;1.63;;;;;;;;;;5031101;28;20455;-57
2021/11/27 04:51:17;;;;;;;4.00;1.37;;;;;;;;;;5032174;28;20036;-57
2021/11/27 04:53:43;;;;;;;1.58;0.95;;;;;;;;;;5035190;28;20029;-57
2021/11/27 04:56:09;;;;;;;3.00;1.57;;;;;;;;;;5034976;28;20025;-57
2021/11/27 04:58:35;;;;;;;1.67;1.00;;;;;;;;;;5035187;28;20032;-56
2021/11/27 05:01:01;;;;;;;2.03;1.20;;;;;;;;;;5042685;28;20025;-55
2021/11/27 05:03:27;;;;;;;2.23;1.20;;;;;;;;;;5047834;28;20087;-56
2021/11/27 05:05:53;;;;;;;2.03;1.25;;;;;;;;;;5034932;28;20029;-57
2021/11/27 05:08:19;;;;;;;3.30;1.20;;;;;;;;;;5034200;28;20045;-56
2021/11/27 05:10:45;;;;;;;1.50;1.00;;;;;;;;;;5034603;28;20033;-56
2021/11/27 05:13:11;;;;;;;1.67;1.00;;;;;;;;;;5042404;28;20094;-57
2021/11/27 05:15:37;;;;;;;3.63;1.73;;;;;;;;;;5042428;28;20132;-57
2021/11/27 05:18:03;;;;;;;2.03;1.02;;;;;;;;;;5033899;28;20033;-55
2021/11/27 05:20:29;;;;;;;2.17;1.07;;;;;;;;;;5034764;28;20048;-56
2021/11/27 05:22:55;;;;;;;3.03;1.47;;;;;;;;;;5034488;28;20475;-57
2021/11/27 05:25:21;;;;;;;1.73;1.03;;;;;;;;;;5034432;28;20040;-57
2021/11/27 05:27:48;;;;;;;1.67;1.03;;;;;;;;;;5033923;28;20034;-55
2021/11/27 05:30:15;;;;;;;1.23;0.87;;;;;;;;;;5035741;28;20112;-53
2021/11/27 05:35:17;;;;;;;1.58;0.82;;;;;;;;;;5034530;28;20367;-57
2021/11/27 05:37:44;;;;;;;1.80;1.00;;;;;;;;;;5033817;28;20029;-55
2021/11/27 05:40:10;;;;;;;1.60;0.87;;;;;;;;;;5034105;28;20025;-56
2021/11/27 05:42:36;;;;;;;1.92;0.85;;;;;;;;;;5037242;28;20040;-57
2021/11/27 05:45:02;;;;;;;3.50;1.23;;;;;;;;;;5053913;28;20027;-57
2021/11/27 05:47:28;;;;;;;2.33;1.10;;;;;;;;;;5053920;28;20025;-56
2021/11/27 05:49:55;;;;;;;0.93;0.60;;;;;;;;;;5053468;28;20031;-56
2021/11/27 05:52:21;;;;;;;1.43;0.83;;;;;;;;;;5053828;28;20112;-56
2021/11/27 05:54:47;;;;;;;1.23;0.70;;;;;;;;;;5054213;28;20028;-56
2021/11/27 05:57:13;;;;;;;2.43;0.83;;;;;;;;;;5051865;28;20025;-56
2021/11/27 05:59:39;;;;;;;2.33;1.00;;;;;;;;;;5053043;28;20025;-57
2021/11/27 06:02:05;;;;;;;1.38;0.82;;;;;;;;;;5053546;28;20029;-56
2021/11/27 06:04:31;;;;;;;1.77;0.90;;;;;;;;;;5037893;28;20367;-57
2021/11/27 06:06:57;;;;;;;1.93;1.03;;;;;;;;;;5033845;28;20033;-53
2021/11/27 06:09:24;;;;;;;2.20;1.08;;;;;;;;;;5033400;28;20029;-57
2021/11/27 06:11:50;;;;;;;1.92;0.80;;;;;;;;;;5033752;28;20387;-57
2021/11/27 06:14:16;;;;;;;1.10;0.60;;;;;;;;;;5034571;28;20025;-57
2021/11/27 06:16:42;;;;;;;2.20;0.90;;;;;;;;;;5033587;28;20034;-55
2021/11/27 06:19:08;;;;;;;1.65;1.15;;;;;;;;;;5032965;28;20112;-56
2021/11/27 06:21:35;;;;;;;2.97;1.00;;;;;;;;;;5033308;28;20511;-57
2021/11/27 06:24:01;;;;;;;1.33;0.90;;;;;;;;;;5033728;28;20087;-58
2021/11/27 06:26:27;;;;;;;3.90;1.00;;;;;;;;;;5033447;28;20025;-58
2021/11/27 06:28:53;;;;;;;1.20;0.87;;;;;;;;;;5033784;28;20030;-56
2021/11/27 06:31:19;;;;;;;2.20;0.98;;;;;;;;;;5033417;28;20036;-56
2021/11/27 06:33:45;;;;;;;3.05;0.80;;;;;;;;;;5047789;28;20112;-57
2021/11/27 06:36:11;;;;;;;1.83;0.90;;;;;;;;;;5053022;28;20033;-54
2021/11/27 06:38:37;;;;;;;3.00;1.13;;;;;;;;;;5052597;28;20029;-57
2021/11/27 06:41:04;;;;;;;3.30;1.93;;;;;;;;;;5051674;28;20025;-57
2021/11/27 06:43:30;;;;;;;3.65;1.17;;;;;;;;;;5033095;28;20146;-57
2021/11/27 06:45:57;;;;;;;1.63;1.10;;;;;;;;;;5033182;28;20025;-57
2021/11/27 06:48:23;;;;;;;1.40;0.80;;;;;;;;;;5032189;28;20108;-55
2021/11/27 06:50:49;;;;;;;1.80;0.70;;;;;;;;;;5032898;28;20057;-57
2021/11/27 06:53:15;;;;;;;2.87;1.17;;;;;;;;;;5033018;28;20036;-57
2021/11/27 06:55:41;;;;;;;3.27;2.13;;;;;;;;;;5032812;28;20021;-56
2021/11/27 06:58:07;;;;;;;1.27;0.83;;;;;;;;;;5032398;28;20130;-57
2021/11/27 07:00:33;;;;;;;1.23;0.82;;;;;;;;;;5032894;28;20032;-58
2021/11/27 07:02:59;;;;;;;1.53;0.77;;;;;;;;;;5035657;28;20025;-55
2021/11/27 07:05:25;;;;;;;1.63;0.70;;;;;;;;;;5051087;28;20035;-57
2021/11/27 07:07:51;;;;;;;1.67;1.10;;;;;;;;;;5051830;28;20459;-58
2021/11/27 07:10:17;;;;;;;1.60;0.90;;;;;;;;;;5051789;28;20107;-56
2021/11/27 07:12:43;;;;;;;0.90;0.60;;;;;;;;;;5052799;28;20037;-57
2021/11/27 07:15:09;;;;;;;1.63;0.65;;;;;;;;;;5052026;28;20437;-57
2021/11/27 07:17:35;;;;;;;1.40;0.70;;;;;;;;;;5051014;28;20029;-55
2021/11/27 07:20:02;;;;;;;1.60;0.90;;;;;;;;;;5051628;28;20029;-57
2021/11/27 07:22:28;;;;;;;1.58;1.00;;;;;;;;;;5052506;28;20116;-56
2021/11/27 07:24:54;;;;;;;1.83;0.93;;;;;;;;;;5050774;28;20117;-57
2021/11/27 07:27:20;;;;;;;1.67;0.82;;;;;;;;;;5052169;28;20470;-56
2021/11/27 07:29:46;;;;;;;1.15;0.70;;;;;;;;;;5048596;28;20087;-57
2021/11/27 07:32:12;;;;;;;1.88;0.93;;;;;;;;;;5032322;28;20434;-58
2021/11/27 07:34:39;;;;;;;1.00;0.57;;;;;;;;;;5032045;28;20538;-55
2021/11/27 07:37:04;;;;;;;2.03;1.10;;;;;;;;;;5032436;28;20029;-57
2021/11/27 07:39:31;;;;;;;1.87;1.30;;;;;;;;;;5045673;28;20436;-55
2021/11/27 07:41:57;;;;;;;1.75;0.82;;;;;;;;;;5051979;28;20029;-58
2021/11/27 07:44:23;;;;;;;1.10;0.60;;;;;;;;;;5052017;28;20033;-57
2021/11/27 07:46:53;;;;;;;1.60;1.00;;;;;;;;;;5051861;28;20052;-56
2021/11/27 07:49:22;;;;;;;3.35;0.90;;;;;;;;;;5051647;28;20086;-57
2021/11/27 07:51:48;;;;;;;3.22;1.27;;;;;;;;;;5051447;28;20035;-57
2021/11/27 07:54:14;;;;;;;1.77;1.27;;;;;;;;;;5032043;28;20160;-57
2021/11/27 07:56:40;;;;;;;3.70;0.75;;;;;;;;;;5031936;28;20092;-56
2021/11/27 07:59:06;;;;;;;1.27;0.65;;;;;;;;;;5031409;28;20033;-57
2021/11/27 08:01:33;;;;;;;2.05;0.90;;;;;;;;;;5033049;28;20407;-57
2021/11/27 08:03:59;;;;;;;1.90;1.10;;;;;;;;;;5044388;28;20036;-57
2021/11/27 08:06:25;;;;;;;1.55;0.80;;;;;;;;;;5037396;28;20120;-54
2021/11/27 08:08:51;;;;;;;1.33;0.77;;;;;;;;;;5046489;28;20108;-57
2021/11/27 08:11:18;;;;;;;1.35;0.70;;;;;;;;;;5035329;28;20037;-57
2021/11/27 08:13:45;;;;;;;1.75;0.88;;;;;;;;;;5030310;28;20041;-55
2021/11/27 08:16:12;;;;;;;0.95;0.57;;;;;;;;;;5029057;28;20449;-57
2021/11/27 08:18:37;;;;;;;0.50;0.30;;;;;;;;;;5042594;28;20533;-58
2021/11/27 08:21:04;;;;;;;1.52;0.80;;;;;;;;;;5040794;28;20086;-53
2021/11/27 08:23:30;;;;;;;1.45;0.85;;;;;;;;;;5043342;28;20049;-58
2021/11/27 08:25:56;;;;;;;0.93;0.40;;;;;;;;;;5040640;28;20033;-57
2021/11/27 08:28:22;;;;;;;1.38;0.77;;;;;;;;;;5031989;28;20083;-55
2021/11/27 08:30:48;;;;;;;0.98;0.55;;;;;;;;;;5036472;28;20083;-57
2021/11/27 08:33:15;;;;;;;1.25;0.52;;;;;;;;;;5035537;28;20029;-57
2021/11/27 08:35:41;;;;;;;1.40;0.68;;;;;;;;;;5034996;28;20033;-56
2021/11/27 08:38:07;;;;;;;1.23;0.63;;;;;;;;;;5034828;28;20087;-54
2021/11/27 08:40:33;;;;;;;1.60;0.70;;;;;;;;;;5035295;28;20034;-57
2021/11/27 08:42:58;;;;;;;1.48;0.75;;;;;;;;;;5034885;28;20087;-57
2021/11/27 08:45:25;;;;;;;1.67;1.10;;;;;;;;;;5035407;28;20041;-58
2021/11/27 08:47:51;;;;;;;1.30;0.68;;;;;;;;;;5035871;28;20086;-57
2021/11/27 08:50:17;;;;;;;2.50;1.00;;;;;;;;;;5049033;28;20021;-57
2021/11/27 08:52:43;;;;;;;1.75;1.02;;;;;;;;;;5037723;28;20062;-57
2021/11/27 08:55:09;;;;;;;1.98;0.82;;;;;;;;;;5049483;28;20391;-56
2021/11/27 08:57:35;;;;;;;1.70;0.98;;;;;;;;;;5054802;28;20158;-56
2021/11/27 09:00:01;;;;;;;2.42;1.55;;;;;;;;;;5053951;28;20496;-56
2021/11/27 09:02:27;;;;;;;1.50;0.82;;;;;;;;;;5065893;28;20043;-57
2021/11/27 09:04:53;;;;;;;1.00;0.60;;;;;;;;;;5035875;28;20037;-55
2021/11/27 09:07:19;;;;;;;1.90;0.98;;;;;;;;;;5046213;28;20033;-57
2021/11/27 09:09:46;;;;;;;2.05;1.00;;;;;;;;;;5050309;28;20032;-57
2021/11/27 09:12:13;;;;;;;2.40;0.90;;;;;;;;;;5034660;28;20510;-56
2021/11/27 09:14:39;;;;;;;1.05;0.60;;;;;;;;;;5034892;28;20037;-57
2021/11/27 09:17:06;;;;;;;2.08;1.23;;;;;;;;;;5039859;28;20091;-57
2021/11/27 09:19:32;;;;;;;1.50;0.55;;;;;;;;;;5054089;28;20021;-57
2021/11/27 09:21:58;;;;;;;2.20;1.02;;;;;;;;;;5054461;28;20064;-57
2021/11/27 09:24:24;;;;;;;2.25;1.23;;;;;;;;;;5035725;28;20236;-56
2021/11/27 09:26:51;;;;;;;1.90;0.85;;;;;;;;;;5034189;28;20033;-56
2021/11/27 09:29:20;;;;;;;3.17;1.23;;;;;;;;;;5033567;28;20104;-57
2021/11/27 09:31:46;;;;;;;1.75;0.75;;;;;;;;;;5050882;28;20036;-56
2021/11/27 09:34:13;;;;;;;1.38;0.80;;;;;;;;;;5054232;28;20025;-57
2021/11/27 09:36:39;;;;;;;2.92;1.00;;;;;;;;;;5053851;28;20429;-56
2021/11/27 09:39:09;;;;;;;2.50;0.73;;;;;;;;;;5052837;28;20025;-57
2021/11/27 09:41:36;;;;;;;1.10;0.52;;;;;;;;;;5052512;28;20075;-57
2021/11/27 09:44:04;;;;;;;1.10;0.55;;;;;;;;;;5033666;28;20030;-57
2021/11/27 09:46:31;;;;;;;5.65;0.93;;;;;;;;;;5034186;28;20032;-57
2021/11/27 09:48:59;;;;;;;1.15;0.70;;;;;;;;;;5033592;28;20029;-57
2021/11/27 09:51:26;;;;;;;0.95;0.40;;;;;;;;;;5032956;28;20072;-57
2021/11/27 09:53:52;;;;;;;3.28;0.70;;;;;;;;;;5033661;28;20463;-56
2021/11/27 09:56:19;;;;;;;1.23;0.63;;;;;;;;;;5035132;28;20547;-57
2021/11/27 09:58:45;;;;;;;0.80;0.40;;;;;;;;;;5045388;28;20108;-56
2021/11/27 10:01:13;;;;;;;1.00;0.50;;;;;;;;;;5034792;28;20033;-57
2021/11/27 10:03:41;;;;;;;0.73;0.57;;;;;;;;;;5042440;28;20043;-57
2021/11/27 10:06:07;;;;;;;1.55;0.47;;;;;;;;;;5053784;28;20021;-56
2021/11/27 10:08:34;;;;;;;1.00;0.50;;;;;;;;;;5052699;28;20387;-56
2021/11/27 10:11:00;;;;;;;4.57;0.70;;;;;;;;;;5053540;28;20489;-55
2021/11/27 10:13:26;;;;;;;1.48;0.73;;;;;;;;;;5037616;28;20116;-57
2021/11/27 10:15:52;;;;;;;2.80;0.93;;;;;;;;;;5038521;28;20961;-55
2021/11/27 10:18:20;;;;;;;2.03;0.75;;;;;;;;;;5041087;28;20033;-57
2021/11/27 10:20:46;;;;;;;1.10;0.75;;;;;;;;;;5038193;28;20075;-55
2021/11/27 10:23:12;;;;;;;1.55;0.52;;;;;;;;;;5040070;28;20487;-56
2021/11/27 10:25:39;;;;;;;0.70;0.40;;;;;;;;;;5042363;28;20100;-55
2021/11/27 10:28:07;;;;;;;4.05;0.60;;;;;;;;;;5036343;28;20060;-57
2021/11/27 10:30:40;;;;;;;1.42;0.60;;;;;;;;;;5036663;28;20115;-56
2021/11/27 10:33:06;;;;;;;3.00;0.70;;;;;;;;;;5030992;28;20052;-54
2021/11/27 10:35:32;;;;;;;2.78;0.75;;;;;;;;;;5031724;28;20395;-57
2021/11/27 10:37:58;;;;;;;1.85;1.00;;;;;;;;;;5046292;28;20025;-57
2021/11/27 10:40:28;;;;;;;2.08;1.17;;;;;;;;;;5048686;28;20028;-57
2021/11/27 10:42:58;;;;;;;1.77;0.43;;;;;;;;;;5048196;28;20264;-55
2021/11/27 10:45:28;;;;;;;3.45;1.15;;;;;;;;;;5051601;28;20128;-56
2021/11/27 10:48:07;;;;;;;2.40;0.73;;;;;;;;;;5052171;28;20112;-55
2021/11/27 10:50:37;;;;;;;0.90;0.43;;;;;;;;;;5050579;28;20087;-55
2021/11/27 10:53:08;;;;;;;3.20;1.15;;;;;;;;;;5048894;28;20039;-54
2021/11/27 10:55:34;;;;;;;1.75;0.57;;;;;;;;;;5052898;28;20191;-55
2021/11/27 10:58:01;;;;;;;1.15;0.82;;;;;;;;;;5047615;28;20065;-56
2021/11/27 11:00:34;;;;;;;1.63;1.00;;;;;;;;;;5034433;28;20025;-53
2021/11/27 11:03:01;;;;;;;2.50;0.93;;;;;;;;;;5032927;28;20022;-53
2021/11/27 11:05:31;;;;;;;2.28;0.73;;;;;;;;;;5042498;28;20025;-56
2021/11/27 11:07:58;;;;;;;6.80;0.85;;;;;;;;;;5037378;28;20031;-57
2021/11/27 11:10:25;;;;;;;3.40;1.05;;;;;;;;;;5049729;28;20370;-53
2021/11/27 11:12:55;;;;;;;3.38;1.17;;;;;;;;;;5050124;28;20083;-52
2021/11/27 11:15:26;;;;;;;1.20;0.60;;;;;;;;;;5039963;28;20045;-52
2021/11/27 11:17:52;;;;;;;;;;;;;;;;;;5033996;28;20030;-55
2021/11/27 11:20:18;;;;;;;2.88;1.13;;;;;;;;;;5040461;28;19923;-53
2021/11/27 11:22:56;;;;;;;1.15;0.57;;;;;;;;;;5040454;28;20025;-55
2021/11/27 11:25:22;;;;;;;2.30;1.13;;;;;;;;;;5040216;28;20047;-56
2021/11/27 11:27:48;;;;;;;2.30;1.27;;;;;;;;;;5038649;28;20029;-54
2021/11/27 11:30:16;;;;;;;1.40;0.50;;;;;;;;;;5031525;28;20440;-56
2021/11/27 11:32:43;;;;;;;3.85;1.05;;;;;;;;;;5035204;28;20033;-52
2021/11/27 11:35:09;;;;;;;1.38;0.75;;;;;;;;;;5041321;28;20422;-57
2021/11/27 11:37:35;;;;;;;1.70;0.90;;;;;;;;;;5039515;28;20056;-57
2021/11/27 11:40:01;;;;;;;1.10;0.70;;;;;;;;;;5035127;28;20377;-57
2021/11/27 11:42:29;;;;;;;1.95;1.00;;;;;;;;;;5033771;28;20041;-56
2021/11/27 11:44:55;;;;;;;0.80;0.52;;;;;;;;;;5029584;28;20044;-53
2021/11/27 11:47:22;;;;;;;2.95;0.98;;;;;;;;;;5049001;28;20096;-53
2021/11/27 11:49:52;;;;;;;1.48;0.90;;;;;;;;;;5050110;28;20032;-53
2021/11/27 11:52:40;;;;;;;2.40;1.00;;;;;;;;;;5051830;28;20367;-57
2021/11/27 11:55:08;;;;;;;0.95;0.60;;;;;;;;;;5042479;28;20122;-55
2021/11/27 11:57:48;;;;;;;1.33;1.10;;;;;;;;;;5051802;28;20028;-56
2021/11/27 12:00:21;;;;;;;1.60;1.03;;;;;;;;;;5033830;28;20029;-57
2021/11/27 12:02:47;;;;;;;1.27;0.73;;;;;;;;;;5035838;28;20280;-53
2021/11/27 12:05:15;;;;;;;2.80;1.05;;;;;;;;;;5036041;28;20065;-55
2021/11/27 12:07:47;;;;;;;4.63;1.00;;;;;;;;;;5035961;28;20033;-55
2021/11/27 12:10:16;;;;;;;1.90;0.82;;;;;;;;;;5051330;28;20020;-55
2021/11/27 12:12:42;;;;;;;2.30;0.65;;;;;;;;;;5055736;28;20041;-56
2021/11/27 12:15:09;;;;;;;2.42;1.05;;;;;;;;;;5039328;28;20021;-52
2021/11/27 12:17:56;;;;;;;3.50;0.95;;;;;;;;;;5035634;28;20021;-53
2021/11/27 12:20:22;;;;;;;2.20;1.05;;;;;;;;;;5035938;28;20033;-57
2021/11/27 12:22:48;;;;;;;2.58;1.27;;;;;;;;;;5038423;28;20463;-57
2021/11/27 12:25:19;;;;;;;1.52;0.63;;;;;;;;;;5055602;28;20032;-55
2021/11/27 12:28:07;;;;;;;0.80;0.47;;;;;;;;;;5054753;28;20040;-54
2021/11/27 12:30:45;;;;;;;1.92;0.50;;;;;;;;;;5067873;28;20064;-55
2021/11/27 12:33:29;;;;;;;1.58;0.77;;;;;;;;;;5055424;28;20030;-54
2021/11/27 12:35:55;;;;;;;1.27;0.77;;;;;;;;;;5035360;28;20384;-55
2021/11/27 12:38:30;;;;;;;0.70;0.40;;;;;;;;;;5045721;28;20467;-55
2021/11/27 12:40:58;;;;;;;1.35;0.70;;;;;;;;;;5046785;28;20459;-57
2021/11/27 12:43:24;;;;;;;1.42;0.73;;;;;;;;;;5035422;28;20033;-54
2021/11/27 12:45:52;;;;;;;1.13;0.55;;;;;;;;;;5038913;28;20036;-56
2021/11/27 12:48:30;;;;;;;2.15;0.60;;;;;;;;;;5050207;28;20463;-57
2021/11/27 12:51:15;;;;;;;1.35;0.57;;;;;;;;;;5047667;28;20556;-54
2021/11/27 12:53:41;;;;;;;0.90;0.50;;;;;;;;;;5035325;28;20091;-54
2021/11/27 12:56:07;;;;;;;0.43;0.28;;;;;;;;;;5051742;28;20025;-55
2021/11/27 12:58:39;;;;;;;0.82;0.43;;;;;;;;;;5054309;28;20394;-57
2021/11/27 13:01:05;;;;;;;1.65;0.70;;;;;;;;;;5054962;28;20029;-54
2021/11/27 13:03:31;;;;;;;1.48;0.40;;;;;;;;;;5047339;28;20044;-54
2021/11/27 13:05:57;;;;;;;0.47;0.30;;;;;;;;;;5055069;28;20123;-57
2021/11/27 13:08:27;;;;;;;0.52;0.25;;;;;;;;;;5044061;28;20427;-55
2021/11/27 13:10:54;;;;;;;3.03;0.95;;;;;;;;;;5054839;28;20082;-56
2021/11/27 13:13:20;;;;;;;0.50;0.30;;;;;;;;;;5052006;28;20082;-54
2021/11/27 13:15:46;;;;;;;0.25;0.17;;;;;;;;;;5034477;28;20191;-55
2021/11/27 13:18:19;;;;;;;6.20;0.75;;;;;;;;;;5043849;28;20059;-56
2021/11/27 13:20:54;;;;;;;0.45;0.20;;;;;;;;;;5052265;28;20104;-53
2021/11/27 13:23:22;;;;;;;0.57;0.28;;;;;;;;;;5050725;28;20072;-52
2021/11/27 13:25:50;;;;;;;0.50;0.30;;;;;;;;;;5034898;28;20026;-50
2021/11/27 13:28:46;;;;;;;3.45;0.77;;;;;;;;;;5049291;28;20491;-52
2021/11/27 13:31:51;;;;;;;0.45;0.20;;;;;;;;;;5037442;28;20048;-53
2021/11/27 13:34:17;;;;;;;1.13;0.20;;;;;;;;;;5030430;28;20030;-56
2021/11/27 13:36:48;;;;;;;1.00;0.47;;;;;;;;;;5017593;28;20038;-53
2021/11/27 13:39:15;;;;;;;0.28;0.20;;;;;;;;;;5027288;28;20038;-54
2021/11/27 13:41:41;;;;;;;0.63;0.30;;;;;;;;;;5035288;28;20034;-54
2021/11/27 13:44:08;;;;;;;0.30;0.30;;;;;;;;;;5034151;28;20116;-53
2021/11/27 13:46:52;;;;;;;0.10;0.10;;;;;;;;;;5045391;28;20112;-57
2021/11/27 13:49:32;;;;;;;0.27;0.20;;;;;;;;;;5027104;28;20029;-54
2021/11/27 13:51:59;;;;;;;0.95;0.38;;;;;;;;;;5046349;28;20031;-51
2021/11/27 13:54:28;;;;;;;1.15;0.32;;;;;;;;;;5054152;28;20033;-53
2021/11/27 13:56:54;;;;;;;0.37;0.20;;;;;;;;;;5053825;28;20045;-50
2021/11/27 13:59:23;;;;;;;0.63;0.20;;;;;;;;;;5038730;28;20513;-54
2021/11/27 14:02:03;;;;;;;0.10;0.10;;;;;;;;;;5060850;28;20030;-54
2021/11/27 14:04:29;;;;;;;0.28;0.17;;;;;;;;;;5047030;28;20032;-57
2021/11/27 14:06:59;;;;;;;0.47;0.30;;;;;;;;;;5053959;28;20032;-56
2021/11/27 14:09:44;;;;;;;0.65;0.28;;;;;;;;;;5042459;28;20506;-53
2021/11/27 14:12:29;;;;;;;0.45;0.30;;;;;;;;;;5033597;28;20045;-55
2021/11/27 14:14:56;;;;;;;0.60;0.35;;;;;;;;;;5048168;28;20029;-50
2021/11/27 14:17:22;;;;;;;0.73;0.35;;;;;;;;;;5038875;28;20037;-54
2021/11/27 14:19:48;;;;;;;0.93;0.50;;;;;;;;;;5033101;28;20030;-50
2021/11/27 14:22:15;;;;;;;0.93;0.40;;;;;;;;;;5033426;28;20039;-54
2021/11/27 14:24:41;;;;;;;0.90;0.43;;;;;;;;;;5033382;28;20117;-56
2021/11/27 14:27:07;;;;;;;0.30;0.20;;;;;;;;;;5024290;28;20752;-56
2021/11/27 14:29:33;;;;;;;1.95;0.50;;;;;;;;;;5016391;28;20034;-57
2021/11/27 14:31:59;;;;;;;1.10;0.50;;;;;;;;;;5016465;28;20116;-56
2021/11/27 14:34:37;;;;;;;0.90;0.65;;;;;;;;;;5016523;28;20794;-53
2021/11/27 14:37:03;;;;;;;0.43;0.40;;;;;;;;;;5023183;28;20112;-57
2021/11/27 14:39:29;;;;;;;0.70;0.43;;;;;;;;;;5016570;28;20407;-55
2021/11/27 14:42:22;;;;;;;0.45;0.25;;;;;;;;;;5022815;28;20252;-54
2021/11/27 14:44:54;;;;;;;0.75;0.40;;;;;;;;;;5030060;28;20505;-57
2021/11/27 14:47:19;;;;;;;1.23;0.63;;;;;;;;;;5046794;28;20123;-54